sensor_id;sensor_type;location;lat;lon;timestamp;P1;P4;P2;P0;N10;N4;N25;N1;N05;TS
82310;SPS30;72015;51.330;12.316;2023-12-04T00:00:55;35.02;;26.50;;;;;;;
82310;SPS30;72015;51.330;12.316;2023-12-04T00:05:19;32.51;;24.89;;;;;;;
82310;SPS30;72015;51.330;12.316;2023-12-04T00:09:43;32.51;;24.89;;;;;;;
82310;SPS30;72015;51.330;12.316;2023-12-04T00:14:07;33.32;;25.40;;;;;;;
82310;SPS30;72015;51.330;12.316;2023-12-04T00:18:31;33.32;;25.40;;;;;;;
82310;SPS30;72015;51.330;12.316;2023-12-04T00:22:55;31.61;;25.09;;;;;;;
82310;SPS30;72015;51.330;12.316;2023-12-04T00:27:19;31.61;;25.09;;;;;;;
82310;SPS30;72015;51.330;12.316;2023-12-04T00:31:43;31.61;;25.09;;;;;;;
82310;SPS30;72015;51.330;12.316;2023-12-04T00:36:08;26.44;;22.21;;;;;;;
82310;SPS30;72015;51.330;12.316;2023-12-04T00:40:31;26.44;;22.21;;;;;;;
82310;SPS30;72015;51.330;12.316;2023-12-04T00:44:55;25.59;;22.04;;;;;;;
82310;SPS30;72015;51.330;12.316;2023-12-04T00:49:19;25.59;;22.04;;;;;;;
82310;SPS30;72015;51.330;12.316;2023-12-04T00:53:43;21.44;;19.65;;;;;;;
82310;SPS30;72015;51.330;12.316;2023-12-04T00:58:07;21.44;;19.65;;;;;;;
82310;SPS30;72015;51.330;12.316;2023-12-04T01:02:31;26.54;;22.17;;;;;;;
82310;SPS30;72015;51.330;12.316;2023-12-04T01:06:55;26.54;;22.17;;;;;;;
82310;SPS30;72015;51.330;12.316;2023-12-04T01:11:19;26.54;;22.17;;;;;;;
82310;SPS30;72015;51.330;12.316;2023-12-04T01:15:43;28.94;;23.76;;;;;;;
82310;SPS30;72015;51.330;12.316;2023-12-04T01:20:07;28.94;;23.76;;;;;;;
82310;SPS30;72015;51.330;12.316;2023-12-04T01:24:31;23.42;;21.21;;;;;;;
82310;SPS30;72015;51.330;12.316;2023-12-04T01:28:55;23.42;;21.21;;;;;;;
82310;SPS30;72015;51.330;12.316;2023-12-04T01:33:19;32.26;;25.89;;;;;;;
82310;SPS30;72015;51.330;12.316;2023-12-04T01:37:43;32.26;;25.89;;;;;;;
82310;SPS30;72015;51.330;12.316;2023-12-04T01:42:07;32.26;;25.89;;;;;;;
82310;SPS30;72015;51.330;12.316;2023-12-04T01:46:31;27.67;;23.33;;;;;;;
82310;SPS30;72015;51.330;12.316;2023-12-04T01:50:55;27.67;;23.33;;;;;;;
82310;SPS30;72015;51.330;12.316;2023-12-04T01:55:19;33.55;;26.47;;;;;;;
82310;SPS30;72015;51.330;12.316;2023-12-04T01:59:43;33.55;;26.47;;;;;;;
82310;SPS30;72015;51.330;12.316;2023-12-04T02:04:07;31.99;;25.38;;;;;;;
82310;SPS30;72015;51.330;12.316;2023-12-04T02:08:31;31.99;;25.38;;;;;;;
82310;SPS30;72015;51.330;12.316;2023-12-04T02:12:55;20.11;;18.08;;;;;;;
82310;SPS30;72015;51.330;12.316;2023-12-04T02:17:19;20.11;;18.08;;;;;;;
82310;SPS30;72015;51.330;12.316;2023-12-04T02:21:43;20.11;;18.08;;;;;;;
82310;SPS30;72015;51.330;12.316;2023-12-04T02:26:09;25.19;;21.24;;;;;;;
82310;SPS30;72015;51.330;12.316;2023-12-04T02:30:31;25.19;;21.24;;;;;;;
82310;SPS30;72015;51.330;12.316;2023-12-04T02:34:56;19.67;;18.32;;;;;;;
82310;SPS30;72015;51.330;12.316;2023-12-04T02:39:19;19.67;;18.32;;;;;;;
82310;SPS30;72015;51.330;12.316;2023-12-04T02:43:43;21.03;;18.46;;;;;;;
82310;SPS30;72015;51.330;12.316;2023-12-04T02:48:07;21.03;;18.46;;;;;;;
82310;SPS30;72015;51.330;12.316;2023-12-04T02:52:31;22.79;;19.67;;;;;;;
82310;SPS30;72015;51.330;12.316;2023-12-04T02:56:55;22.79;;19.67;;;;;;;
82310;SPS30;72015;51.330;12.316;2023-12-04T03:01:19;22.79;;19.67;;;;;;;
82310;SPS30;72015;51.330;12.316;2023-12-04T03:05:43;25.17;;20.44;;;;;;;
82310;SPS30;72015;51.330;12.316;2023-12-04T03:10:07;25.17;;20.44;;;;;;;
82310;SPS30;72015;51.330;12.316;2023-12-04T03:14:31;25.77;;20.89;;;;;;;
82310;SPS30;72015;51.330;12.316;2023-12-04T03:18:56;25.77;;20.89;;;;;;;
82310;SPS30;72015;51.330;12.316;2023-12-04T03:23:20;25.26;;20.60;;;;;;;
82310;SPS30;72015;51.330;12.316;2023-12-04T03:27:43;25.26;;20.60;;;;;;;
82310;SPS30;72015;51.330;12.316;2023-12-04T03:32:07;25.26;;20.60;;;;;;;
82310;SPS30;72015;51.330;12.316;2023-12-04T03:36:31;17.22;;15.62;;;;;;;
82310;SPS30;72015;51.330;12.316;2023-12-04T03:40:55;17.22;;15.62;;;;;;;
82310;SPS30;72015;51.330;12.316;2023-12-04T03:45:19;19.49;;17.70;;;;;;;
82310;SPS30;72015;51.330;12.316;2023-12-04T03:49:44;19.49;;17.70;;;;;;;
82310;SPS30;72015;51.330;12.316;2023-12-04T03:54:08;22.86;;18.83;;;;;;;
82310;SPS30;72015;51.330;12.316;2023-12-04T03:58:32;22.86;;18.83;;;;;;;
82310;SPS30;72015;51.330;12.316;2023-12-04T04:02:56;18.78;;16.58;;;;;;;
82310;SPS30;72015;51.330;12.316;2023-12-04T04:07:20;18.78;;16.58;;;;;;;
82310;SPS30;72015;51.330;12.316;2023-12-04T04:11:43;18.78;;16.58;;;;;;;
82310;SPS30;72015;51.330;12.316;2023-12-04T04:16:12;19.59;;17.45;;;;;;;
82310;SPS30;72015;51.330;12.316;2023-12-04T04:20:31;19.59;;17.45;;;;;;;
82310;SPS30;72015;51.330;12.316;2023-12-04T04:24:55;32.47;;24.30;;;;;;;
82310;SPS30;72015;51.330;12.316;2023-12-04T04:29:19;32.47;;24.30;;;;;;;
82310;SPS30;72015;51.330;12.316;2023-12-04T04:33:43;18.84;;16.84;;;;;;;
82310;SPS30;72015;51.330;12.316;2023-12-04T04:38:08;18.84;;16.84;;;;;;;
82310;SPS30;72015;51.330;12.316;2023-12-04T04:42:31;15.20;;13.71;;;;;;;
82310;SPS30;72015;51.330;12.316;2023-12-04T04:46:55;15.20;;13.71;;;;;;;
82310;SPS30;72015;51.330;12.316;2023-12-04T04:51:19;15.20;;13.71;;;;;;;
82310;SPS30;72015;51.330;12.316;2023-12-04T04:55:43;16.70;;15.01;;;;;;;
82310;SPS30;72015;51.330;12.316;2023-12-04T05:00:08;16.70;;15.01;;;;;;;
82310;SPS30;72015;51.330;12.316;2023-12-04T05:04:31;17.18;;14.66;;;;;;;
82310;SPS30;72015;51.330;12.316;2023-12-04T05:08:55;17.18;;14.66;;;;;;;
82310;SPS30;72015;51.330;12.316;2023-12-04T05:13:19;23.58;;18.85;;;;;;;
82310;SPS30;72015;51.330;12.316;2023-12-04T05:17:43;23.58;;18.85;;;;;;;
82310;SPS30;72015;51.330;12.316;2023-12-04T05:22:08;23.58;;18.85;;;;;;;
82310;SPS30;72015;51.330;12.316;2023-12-04T05:26:31;15.81;;14.24;;;;;;;
82310;SPS30;72015;51.330;12.316;2023-12-04T05:30:55;15.81;;14.24;;;;;;;
82310;SPS30;72015;51.330;12.316;2023-12-04T05:35:19;17.82;;15.24;;;;;;;
82310;SPS30;72015;51.330;12.316;2023-12-04T05:39:43;17.82;;15.24;;;;;;;
82310;SPS30;72015;51.330;12.316;2023-12-04T05:44:07;22.99;;18.17;;;;;;;
82310;SPS30;72015;51.330;12.316;2023-12-04T05:48:31;22.99;;18.17;;;;;;;
82310;SPS30;72015;51.330;12.316;2023-12-04T05:52:55;12.28;;11.62;;;;;;;
82310;SPS30;72015;51.330;12.316;2023-12-04T05:57:19;12.28;;11.62;;;;;;;
82310;SPS30;72015;51.330;12.316;2023-12-04T06:01:43;12.28;;11.62;;;;;;;
82310;SPS30;72015;51.330;12.316;2023-12-04T06:06:07;12.63;;11.31;;;;;;;
82310;SPS30;72015;51.330;12.316;2023-12-04T06:10:31;12.63;;11.31;;;;;;;
82310;SPS30;72015;51.330;12.316;2023-12-04T06:14:55;11.63;;10.66;;;;;;;
82310;SPS30;72015;51.330;12.316;2023-12-04T06:19:19;11.63;;10.66;;;;;;;
82310;SPS30;72015;51.330;12.316;2023-12-04T06:23:44;14.26;;12.42;;;;;;;
82310;SPS30;72015;51.330;12.316;2023-12-04T06:28:08;14.26;;12.42;;;;;;;
82310;SPS30;72015;51.330;12.316;2023-12-04T06:32:32;19.13;;14.94;;;;;;;
82310;SPS30;72015;51.330;12.316;2023-12-04T06:36:56;19.13;;14.94;;;;;;;
82310;SPS30;72015;51.330;12.316;2023-12-04T06:41:20;19.13;;14.94;;;;;;;
82310;SPS30;72015;51.330;12.316;2023-12-04T06:45:44;16.06;;13.43;;;;;;;
82310;SPS30;72015;51.330;12.316;2023-12-04T06:50:08;16.06;;13.43;;;;;;;
82310;SPS30;72015;51.330;12.316;2023-12-04T06:54:32;17.67;;14.24;;;;;;;
82310;SPS30;72015;51.330;12.316;2023-12-04T06:58:56;17.67;;14.24;;;;;;;
82310;SPS30;72015;51.330;12.316;2023-12-04T07:03:20;11.70;;10.56;;;;;;;
82310;SPS30;72015;51.330;12.316;2023-12-04T07:07:43;11.70;;10.56;;;;;;;
82310;SPS30;72015;51.330;12.316;2023-12-04T07:12:08;11.70;;10.56;;;;;;;
82310;SPS30;72015;51.330;12.316;2023-12-04T07:16:38;11.90;;10.67;;;;;;;
82310;SPS30;72015;51.330;12.316;2023-12-04T07:20:55;11.90;;10.67;;;;;;;
82310;SPS30;72015;51.330;12.316;2023-12-04T07:25:19;14.05;;12.23;;;;;;;
82310;SPS30;72015;51.330;12.316;2023-12-04T07:29:43;14.05;;12.23;;;;;;;
82310;SPS30;72015;51.330;12.316;2023-12-04T07:34:08;10.50;;9.64;;;;;;;
82310;SPS30;72015;51.330;12.316;2023-12-04T07:38:32;10.50;;9.64;;;;;;;
82310;SPS30;72015;51.330;12.316;2023-12-04T07:42:56;10.54;;9.54;;;;;;;
82310;SPS30;72015;51.330;12.316;2023-12-04T07:47:20;10.54;;9.54;;;;;;;
82310;SPS30;72015;51.330;12.316;2023-12-04T07:51:44;10.54;;9.54;;;;;;;
82310;SPS30;72015;51.330;12.316;2023-12-04T07:56:08;10.00;;9.63;;;;;;;
82310;SPS30;72015;51.330;12.316;2023-12-04T08:00:32;10.00;;9.63;;;;;;;
82310;SPS30;72015;51.330;12.316;2023-12-04T08:04:56;7.20;;7.06;;;;;;;
82310;SPS30;72015;51.330;12.316;2023-12-04T08:09:20;7.20;;7.06;;;;;;;
82310;SPS30;72015;51.330;12.316;2023-12-04T08:13:44;10.61;;9.32;;;;;;;
82310;SPS30;72015;51.330;12.316;2023-12-04T08:18:08;10.61;;9.32;;;;;;;
82310;SPS30;72015;51.330;12.316;2023-12-04T08:22:32;8.83;;8.54;;;;;;;
82310;SPS30;72015;51.330;12.316;2023-12-04T08:26:59;8.83;;8.54;;;;;;;
82310;SPS30;72015;51.330;12.316;2023-12-04T08:31:20;8.83;;8.54;;;;;;;
82310;SPS30;72015;51.330;12.316;2023-12-04T08:35:44;9.56;;8.60;;;;;;;
82310;SPS30;72015;51.330;12.316;2023-12-04T08:40:08;9.56;;8.60;;;;;;;
82310;SPS30;72015;51.330;12.316;2023-12-04T08:44:33;12.10;;10.34;;;;;;;
82310;SPS30;72015;51.330;12.316;2023-12-04T08:48:56;12.10;;10.34;;;;;;;
82310;SPS30;72015;51.330;12.316;2023-12-04T08:53:20;12.03;;10.92;;;;;;;
82310;SPS30;72015;51.330;12.316;2023-12-04T08:57:44;12.03;;10.92;;;;;;;
82310;SPS30;72015;51.330;12.316;2023-12-04T09:02:08;12.03;;10.92;;;;;;;
82310;SPS30;72015;51.330;12.316;2023-12-04T09:06:32;13.62;;12.14;;;;;;;
82310;SPS30;72015;51.330;12.316;2023-12-04T09:10:56;13.62;;12.14;;;;;;;
82310;SPS30;72015;51.330;12.316;2023-12-04T09:15:19;11.04;;10.40;;;;;;;
82310;SPS30;72015;51.330;12.316;2023-12-04T09:19:44;11.04;;10.40;;;;;;;
82310;SPS30;72015;51.330;12.316;2023-12-04T09:24:08;9.65;;8.98;;;;;;;
82310;SPS30;72015;51.330;12.316;2023-12-04T09:28:32;9.65;;8.98;;;;;;;
82310;SPS30;72015;51.330;12.316;2023-12-04T09:32:56;9.39;;9.07;;;;;;;
82310;SPS30;72015;51.330;12.316;2023-12-04T09:37:20;9.39;;9.07;;;;;;;
82310;SPS30;72015;51.330;12.316;2023-12-04T09:41:44;9.39;;9.07;;;;;;;
82310;SPS30;72015;51.330;12.316;2023-12-04T09:46:08;10.80;;10.03;;;;;;;
82310;SPS30;72015;51.330;12.316;2023-12-04T09:50:32;10.80;;10.03;;;;;;;
82310;SPS30;72015;51.330;12.316;2023-12-04T09:54:56;13.37;;11.74;;;;;;;
82310;SPS30;72015;51.330;12.316;2023-12-04T09:59:20;13.37;;11.74;;;;;;;
82310;SPS30;72015;51.330;12.316;2023-12-04T10:03:44;9.85;;9.23;;;;;;;
82310;SPS30;72015;51.330;12.316;2023-12-04T10:08:08;9.85;;9.23;;;;;;;
82310;SPS30;72015;51.330;12.316;2023-12-04T10:12:32;10.13;;9.37;;;;;;;
82310;SPS30;72015;51.330;12.316;2023-12-04T10:16:56;10.13;;9.37;;;;;;;
82310;SPS30;72015;51.330;12.316;2023-12-04T10:21:20;10.13;;9.37;;;;;;;
82310;SPS30;72015;51.330;12.316;2023-12-04T10:25:44;8.38;;8.14;;;;;;;
82310;SPS30;72015;51.330;12.316;2023-12-04T10:30:08;8.38;;8.14;;;;;;;
82310;SPS30;72015;51.330;12.316;2023-12-04T10:34:32;8.65;;8.40;;;;;;;
82310;SPS30;72015;51.330;12.316;2023-12-04T10:38:59;8.65;;8.40;;;;;;;
82310;SPS30;72015;51.330;12.316;2023-12-04T10:43:22;10.39;;9.49;;;;;;;
82310;SPS30;72015;51.330;12.316;2023-12-04T10:47:44;10.39;;9.49;;;;;;;
82310;SPS30;72015;51.330;12.316;2023-12-04T10:52:08;10.39;;9.49;;;;;;;
82310;SPS30;72015;51.330;12.316;2023-12-04T11:00:56;11.92;;9.84;;;;;;;
82310;SPS30;72015;51.330;12.316;2023-12-04T11:05:20;9.03;;9.03;;;;;;;
82310;SPS30;72015;51.330;12.316;2023-12-04T11:09:44;9.03;;9.03;;;;;;;
82310;SPS30;72015;51.330;12.316;2023-12-04T11:14:08;8.92;;8.40;;;;;;;
82310;SPS30;72015;51.330;12.316;2023-12-04T11:18:35;8.92;;8.40;;;;;;;
82310;SPS30;72015;51.330;12.316;2023-12-04T11:22:56;12.70;;10.51;;;;;;;
82310;SPS30;72015;51.330;12.316;2023-12-04T11:27:20;12.70;;10.51;;;;;;;
82310;SPS30;72015;51.330;12.316;2023-12-04T11:31:44;12.70;;10.51;;;;;;;
82310;SPS30;72015;51.330;12.316;2023-12-04T11:36:08;11.99;;10.48;;;;;;;
82310;SPS30;72015;51.330;12.316;2023-12-04T11:40:32;11.99;;10.48;;;;;;;
82310;SPS30;72015;51.330;12.316;2023-12-04T11:44:58;8.47;;7.46;;;;;;;
82310;SPS30;72015;51.330;12.316;2023-12-04T11:53:44;7.06;;7.06;;;;;;;
82310;SPS30;72015;51.330;12.316;2023-12-04T11:58:08;7.06;;7.06;;;;;;;
82310;SPS30;72015;51.330;12.316;2023-12-04T12:02:32;6.83;;6.40;;;;;;;
82310;SPS30;72015;51.330;12.316;2023-12-04T12:06:56;6.83;;6.40;;;;;;;
82310;SPS30;72015;51.330;12.316;2023-12-04T12:11:20;6.83;;6.40;;;;;;;
82310;SPS30;72015;51.330;12.316;2023-12-04T12:15:46;10.23;;8.78;;;;;;;
82310;SPS30;72015;51.330;12.316;2023-12-04T12:20:08;10.23;;8.78;;;;;;;
82310;SPS30;72015;51.330;12.316;2023-12-04T12:24:32;11.49;;11.49;;;;;;;
82310;SPS30;72015;51.330;12.316;2023-12-04T12:28:56;11.49;;11.49;;;;;;;
82310;SPS30;72015;51.330;12.316;2023-12-04T12:33:20;8.24;;8.02;;;;;;;
82310;SPS30;72015;51.330;12.316;2023-12-04T12:37:44;8.24;;8.02;;;;;;;
82310;SPS30;72015;51.330;12.316;2023-12-04T12:42:08;8.24;;8.02;;;;;;;
82310;SPS30;72015;51.330;12.316;2023-12-04T12:46:33;13.76;;10.96;;;;;;;
82310;SPS30;72015;51.330;12.316;2023-12-04T12:50:56;13.76;;10.96;;;;;;;
82310;SPS30;72015;51.330;12.316;2023-12-04T12:55:26;7.10;;7.10;;;;;;;
82310;SPS30;72015;51.330;12.316;2023-12-04T12:59:44;7.10;;7.10;;;;;;;
82310;SPS30;72015;51.330;12.316;2023-12-04T13:04:08;8.31;;8.03;;;;;;;
82310;SPS30;72015;51.330;12.316;2023-12-04T13:08:32;8.31;;8.03;;;;;;;
82310;SPS30;72015;51.330;12.316;2023-12-04T13:12:56;11.84;;10.85;;;;;;;
82310;SPS30;72015;51.330;12.316;2023-12-04T13:17:20;11.84;;10.85;;;;;;;
82310;SPS30;72015;51.330;12.316;2023-12-04T13:21:44;11.84;;10.85;;;;;;;
82310;SPS30;72015;51.330;12.316;2023-12-04T13:26:08;10.64;;9.89;;;;;;;
82310;SPS30;72015;51.330;12.316;2023-12-04T13:30:32;10.64;;9.89;;;;;;;
82310;SPS30;72015;51.330;12.316;2023-12-04T13:34:56;15.47;;15.47;;;;;;;
82310;SPS30;72015;51.330;12.316;2023-12-04T13:39:20;15.47;;15.47;;;;;;;
82310;SPS30;72015;51.330;12.316;2023-12-04T13:43:44;12.48;;11.62;;;;;;;
82310;SPS30;72015;51.330;12.316;2023-12-04T13:48:08;12.48;;11.62;;;;;;;
82310;SPS30;72015;51.330;12.316;2023-12-04T13:52:32;9.86;;9.53;;;;;;;
82310;SPS30;72015;51.330;12.316;2023-12-04T13:56:56;9.86;;9.53;;;;;;;
82310;SPS30;72015;51.330;12.316;2023-12-04T14:01:20;9.86;;9.53;;;;;;;
82310;SPS30;72015;51.330;12.316;2023-12-04T14:05:44;21.02;;17.74;;;;;;;
82310;SPS30;72015;51.330;12.316;2023-12-04T14:10:08;21.02;;17.74;;;;;;;
82310;SPS30;72015;51.330;12.316;2023-12-04T14:14:32;19.32;;16.58;;;;;;;
82310;SPS30;72015;51.330;12.316;2023-12-04T14:18:56;19.32;;16.58;;;;;;;
82310;SPS30;72015;51.330;12.316;2023-12-04T14:23:20;29.86;;24.64;;;;;;;
82310;SPS30;72015;51.330;12.316;2023-12-04T14:27:44;29.86;;24.64;;;;;;;
82310;SPS30;72015;51.330;12.316;2023-12-04T14:32:08;29.86;;24.64;;;;;;;
82310;SPS30;72015;51.330;12.316;2023-12-04T14:36:32;20.98;;19.72;;;;;;;
82310;SPS30;72015;51.330;12.316;2023-12-04T14:40:56;20.98;;19.72;;;;;;;
82310;SPS30;72015;51.330;12.316;2023-12-04T14:45:20;14.24;;14.19;;;;;;;
82310;SPS30;72015;51.330;12.316;2023-12-04T14:49:44;14.24;;14.19;;;;;;;
82310;SPS30;72015;51.330;12.316;2023-12-04T14:54:08;11.00;;11.00;;;;;;;
82310;SPS30;72015;51.330;12.316;2023-12-04T14:58:32;11.00;;11.00;;;;;;;
82310;SPS30;72015;51.330;12.316;2023-12-04T15:02:56;16.19;;14.87;;;;;;;
82310;SPS30;72015;51.330;12.316;2023-12-04T15:07:20;16.19;;14.87;;;;;;;
82310;SPS30;72015;51.330;12.316;2023-12-04T15:11:44;16.19;;14.87;;;;;;;
82310;SPS30;72015;51.330;12.316;2023-12-04T15:16:08;13.02;;12.81;;;;;;;
82310;SPS30;72015;51.330;12.316;2023-12-04T15:20:32;13.02;;12.81;;;;;;;
82310;SPS30;72015;51.330;12.316;2023-12-04T15:24:56;16.63;;15.43;;;;;;;
82310;SPS30;72015;51.330;12.316;2023-12-04T15:29:20;16.63;;15.43;;;;;;;
82310;SPS30;72015;51.330;12.316;2023-12-04T15:33:44;13.70;;13.70;;;;;;;
82310;SPS30;72015;51.330;12.316;2023-12-04T15:38:08;13.70;;13.70;;;;;;;
82310;SPS30;72015;51.330;12.316;2023-12-04T15:42:32;20.39;;16.98;;;;;;;
82310;SPS30;72015;51.330;12.316;2023-12-04T15:46:56;20.39;;16.98;;;;;;;
82310;SPS30;72015;51.330;12.316;2023-12-04T15:51:20;20.39;;16.98;;;;;;;
82310;SPS30;72015;51.330;12.316;2023-12-04T15:55:44;14.74;;14.13;;;;;;;
82310;SPS30;72015;51.330;12.316;2023-12-04T16:00:08;14.74;;14.13;;;;;;;
82310;SPS30;72015;51.330;12.316;2023-12-04T16:04:32;13.90;;12.21;;;;;;;
82310;SPS30;72015;51.330;12.316;2023-12-04T16:08:56;13.90;;12.21;;;;;;;
82310;SPS30;72015;51.330;12.316;2023-12-04T16:13:20;11.20;;11.05;;;;;;;
82310;SPS30;72015;51.330;12.316;2023-12-04T16:17:44;11.20;;11.05;;;;;;;
82310;SPS30;72015;51.330;12.316;2023-12-04T16:22:08;11.20;;11.05;;;;;;;
82310;SPS30;72015;51.330;12.316;2023-12-04T16:26:32;9.41;;8.49;;;;;;;
82310;SPS30;72015;51.330;12.316;2023-12-04T16:30:56;9.41;;8.49;;;;;;;
82310;SPS30;72015;51.330;12.316;2023-12-04T16:35:20;11.99;;10.15;;;;;;;
82310;SPS30;72015;51.330;12.316;2023-12-04T16:39:44;11.99;;10.15;;;;;;;
82310;SPS30;72015;51.330;12.316;2023-12-04T16:44:08;14.25;;12.44;;;;;;;
82310;SPS30;72015;51.330;12.316;2023-12-04T16:48:32;14.25;;12.44;;;;;;;
82310;SPS30;72015;51.330;12.316;2023-12-04T16:52:56;21.46;;17.21;;;;;;;
82310;SPS30;72015;51.330;12.316;2023-12-04T16:57:20;21.46;;17.21;;;;;;;
82310;SPS30;72015;51.330;12.316;2023-12-04T17:01:44;21.46;;17.21;;;;;;;
82310;SPS30;72015;51.330;12.316;2023-12-04T17:06:08;23.64;;18.69;;;;;;;
82310;SPS30;72015;51.330;12.316;2023-12-04T17:10:32;23.64;;18.69;;;;;;;
82310;SPS30;72015;51.330;12.316;2023-12-04T17:14:56;12.86;;12.38;;;;;;;
82310;SPS30;72015;51.330;12.316;2023-12-04T17:19:20;12.86;;12.38;;;;;;;
82310;SPS30;72015;51.330;12.316;2023-12-04T17:23:44;14.60;;13.35;;;;;;;
82310;SPS30;72015;51.330;12.316;2023-12-04T17:28:08;14.60;;13.35;;;;;;;
82310;SPS30;72015;51.330;12.316;2023-12-04T17:32:32;15.20;;13.49;;;;;;;
82310;SPS30;72015;51.330;12.316;2023-12-04T17:36:56;15.20;;13.49;;;;;;;
82310;SPS30;72015;51.330;12.316;2023-12-04T17:41:20;15.20;;13.49;;;;;;;
82310;SPS30;72015;51.330;12.316;2023-12-04T17:45:44;18.72;;15.75;;;;;;;
82310;SPS30;72015;51.330;12.316;2023-12-04T17:50:08;18.72;;15.75;;;;;;;
82310;SPS30;72015;51.330;12.316;2023-12-04T17:54:32;12.75;;12.07;;;;;;;
82310;SPS30;72015;51.330;12.316;2023-12-04T17:58:56;12.75;;12.07;;;;;;;
82310;SPS30;72015;51.330;12.316;2023-12-04T18:03:21;13.05;;12.63;;;;;;;
82310;SPS30;72015;51.330;12.316;2023-12-04T18:07:45;13.05;;12.63;;;;;;;
82310;SPS30;72015;51.330;12.316;2023-12-04T18:12:09;13.05;;12.63;;;;;;;
82310;SPS30;72015;51.330;12.316;2023-12-04T18:16:33;18.43;;16.05;;;;;;;
82310;SPS30;72015;51.330;12.316;2023-12-04T18:20:57;18.43;;16.05;;;;;;;
82310;SPS30;72015;51.330;12.316;2023-12-04T18:25:21;17.88;;16.03;;;;;;;
82310;SPS30;72015;51.330;12.316;2023-12-04T18:29:45;17.88;;16.03;;;;;;;
82310;SPS30;72015;51.330;12.316;2023-12-04T18:34:09;15.89;;14.21;;;;;;;
82310;SPS30;72015;51.330;12.316;2023-12-04T18:38:36;15.89;;14.21;;;;;;;
82310;SPS30;72015;51.330;12.316;2023-12-04T18:42:57;11.52;;11.16;;;;;;;
82310;SPS30;72015;51.330;12.316;2023-12-04T18:47:21;11.52;;11.16;;;;;;;
82310;SPS30;72015;51.330;12.316;2023-12-04T18:51:45;11.52;;11.16;;;;;;;
82310;SPS30;72015;51.330;12.316;2023-12-04T18:56:09;14.30;;13.41;;;;;;;
82310;SPS30;72015;51.330;12.316;2023-12-04T19:00:33;14.30;;13.41;;;;;;;
82310;SPS30;72015;51.330;12.316;2023-12-04T19:04:57;16.56;;14.81;;;;;;;
82310;SPS30;72015;51.330;12.316;2023-12-04T19:09:21;16.56;;14.81;;;;;;;
82310;SPS30;72015;51.330;12.316;2023-12-04T19:13:45;23.90;;19.23;;;;;;;
82310;SPS30;72015;51.330;12.316;2023-12-04T19:18:09;23.90;;19.23;;;;;;;
82310;SPS30;72015;51.330;12.316;2023-12-04T19:22:33;20.49;;18.82;;;;;;;
82310;SPS30;72015;51.330;12.316;2023-12-04T19:26:57;20.49;;18.82;;;;;;;
82310;SPS30;72015;51.330;12.316;2023-12-04T19:31:21;20.49;;18.82;;;;;;;
82310;SPS30;72015;51.330;12.316;2023-12-04T19:35:45;20.83;;16.79;;;;;;;
82310;SPS30;72015;51.330;12.316;2023-12-04T19:40:12;20.83;;16.79;;;;;;;
82310;SPS30;72015;51.330;12.316;2023-12-04T19:44:33;16.51;;14.37;;;;;;;
82310;SPS30;72015;51.330;12.316;2023-12-04T19:48:57;16.51;;14.37;;;;;;;
82310;SPS30;72015;51.330;12.316;2023-12-04T19:53:21;15.90;;14.67;;;;;;;
82310;SPS30;72015;51.330;12.316;2023-12-04T19:57:45;15.90;;14.67;;;;;;;
82310;SPS30;72015;51.330;12.316;2023-12-04T20:02:09;15.90;;14.67;;;;;;;
82310;SPS30;72015;51.330;12.316;2023-12-04T20:06:33;16.37;;14.92;;;;;;;
82310;SPS30;72015;51.330;12.316;2023-12-04T20:10:57;16.37;;14.92;;;;;;;
82310;SPS30;72015;51.330;12.316;2023-12-04T20:15:21;15.23;;14.71;;;;;;;
82310;SPS30;72015;51.330;12.316;2023-12-04T20:19:45;15.23;;14.71;;;;;;;
82310;SPS30;72015;51.330;12.316;2023-12-04T20:24:09;16.27;;15.68;;;;;;;
82310;SPS30;72015;51.330;12.316;2023-12-04T20:28:33;16.27;;15.68;;;;;;;
82310;SPS30;72015;51.330;12.316;2023-12-04T20:32:57;19.45;;16.89;;;;;;;
82310;SPS30;72015;51.330;12.316;2023-12-04T20:37:21;19.45;;16.89;;;;;;;
82310;SPS30;72015;51.330;12.316;2023-12-04T20:41:45;19.45;;16.89;;;;;;;
82310;SPS30;72015;51.330;12.316;2023-12-04T20:46:09;21.46;;18.26;;;;;;;
82310;SPS30;72015;51.330;12.316;2023-12-04T20:50:33;21.46;;18.26;;;;;;;
82310;SPS30;72015;51.330;12.316;2023-12-04T20:54:57;21.88;;18.39;;;;;;;
82310;SPS30;72015;51.330;12.316;2023-12-04T20:59:21;21.88;;18.39;;;;;;;
82310;SPS30;72015;51.330;12.316;2023-12-04T21:03:45;24.91;;20.16;;;;;;;
82310;SPS30;72015;51.330;12.316;2023-12-04T21:08:09;24.91;;20.16;;;;;;;
82310;SPS30;72015;51.330;12.316;2023-12-04T21:12:33;19.88;;17.77;;;;;;;
82310;SPS30;72015;51.330;12.316;2023-12-04T21:16:57;19.88;;17.77;;;;;;;
82310;SPS30;72015;51.330;12.316;2023-12-04T21:21:21;19.88;;17.77;;;;;;;
82310;SPS30;72015;51.330;12.316;2023-12-04T21:25:45;16.27;;15.27;;;;;;;
82310;SPS30;72015;51.330;12.316;2023-12-04T21:30:09;16.27;;15.27;;;;;;;
82310;SPS30;72015;51.330;12.316;2023-12-04T21:34:33;19.96;;17.79;;;;;;;
82310;SPS30;72015;51.330;12.316;2023-12-04T21:38:57;19.96;;17.79;;;;;;;
82310;SPS30;72015;51.330;12.316;2023-12-04T21:43:21;29.96;;27.15;;;;;;;
82310;SPS30;72015;51.330;12.316;2023-12-04T21:47:45;29.96;;27.15;;;;;;;
82310;SPS30;72015;51.330;12.316;2023-12-04T21:52:09;29.96;;27.15;;;;;;;
82310;SPS30;72015;51.330;12.316;2023-12-04T21:56:33;19.74;;18.66;;;;;;;
82310;SPS30;72015;51.330;12.316;2023-12-04T22:00:57;19.74;;18.66;;;;;;;
82310;SPS30;72015;51.330;12.316;2023-12-04T22:05:21;22.89;;19.56;;;;;;;
82310;SPS30;72015;51.330;12.316;2023-12-04T22:09:45;22.89;;19.56;;;;;;;
82310;SPS30;72015;51.330;12.316;2023-12-04T22:14:09;19.24;;17.48;;;;;;;
82310;SPS30;72015;51.330;12.316;2023-12-04T22:18:33;19.24;;17.48;;;;;;;
82310;SPS30;72015;51.330;12.316;2023-12-04T22:22:57;19.21;;18.10;;;;;;;
82310;SPS30;72015;51.330;12.316;2023-12-04T22:27:21;19.21;;18.10;;;;;;;
82310;SPS30;72015;51.330;12.316;2023-12-04T22:31:45;19.21;;18.10;;;;;;;
82310;SPS30;72015;51.330;12.316;2023-12-04T22:36:09;20.35;;18.49;;;;;;;
82310;SPS30;72015;51.330;12.316;2023-12-04T22:40:33;20.35;;18.49;;;;;;;
82310;SPS30;72015;51.330;12.316;2023-12-04T22:44:57;22.64;;20.34;;;;;;;
82310;SPS30;72015;51.330;12.316;2023-12-04T22:49:21;22.64;;20.34;;;;;;;
82310;SPS30;72015;51.330;12.316;2023-12-04T22:53:45;19.28;;17.50;;;;;;;
82310;SPS30;72015;51.330;12.316;2023-12-04T22:58:09;19.28;;17.50;;;;;;;
82310;SPS30;72015;51.330;12.316;2023-12-04T23:02:33;21.02;;18.78;;;;;;;
82310;SPS30;72015;51.330;12.316;2023-12-04T23:06:57;21.02;;18.78;;;;;;;
82310;SPS30;72015;51.330;12.316;2023-12-04T23:11:21;21.02;;18.78;;;;;;;
82310;SPS30;72015;51.330;12.316;2023-12-04T23:15:45;19.71;;18.98;;;;;;;
82310;SPS30;72015;51.330;12.316;2023-12-04T23:20:10;19.71;;18.98;;;;;;;
82310;SPS30;72015;51.330;12.316;2023-12-04T23:24:33;17.39;;16.99;;;;;;;
82310;SPS30;72015;51.330;12.316;2023-12-04T23:28:57;17.39;;16.99;;;;;;;
82310;SPS30;72015;51.330;12.316;2023-12-04T23:33:21;19.15;;17.78;;;;;;;
82310;SPS30;72015;51.330;12.316;2023-12-04T23:37:45;19.15;;17.78;;;;;;;
82310;SPS30;72015;51.330;12.316;2023-12-04T23:42:09;19.15;;17.78;;;;;;;
82310;SPS30;72015;51.330;12.316;2023-12-04T23:46:33;19.38;;17.86;;;;;;;
82310;SPS30;72015;51.330;12.316;2023-12-04T23:50:57;19.38;;17.86;;;;;;;
82310;SPS30;72015;51.330;12.316;2023-12-04T23:55:21;20.83;;18.95;;;;;;;
82310;SPS30;72015;51.330;12.316;2023-12-04T23:59:45;20.83;;18.95;;;;;;;
